sensor_id;sensor_type;location;lat;lon;timestamp;pressure;altitude;pressure_sealevel;temperature;humidity
35704;BME280;21820;51.112;13.762;2024-03-07T00:00:20;100204.09;;;20.53;54.59
35704;BME280;21820;51.112;13.762;2024-03-07T00:02:50;100205.78;;;20.54;54.52
35704;BME280;21820;51.112;13.762;2024-03-07T00:05:20;100205.53;;;20.57;55.07
35704;BME280;21820;51.112;13.762;2024-03-07T00:07:46;100195.59;;;20.51;54.19
35704;BME280;21820;51.112;13.762;2024-03-07T00:10:12;100216.09;;;20.44;55.04
35704;BME280;21820;51.112;13.762;2024-03-07T00:12:38;100203.25;;;20.30;55.49
35704;BME280;21820;51.112;13.762;2024-03-07T00:15:06;100203.13;;;20.21;55.18
35704;BME280;21820;51.112;13.762;2024-03-07T00:17:32;100211.69;;;20.23;55.86
35704;BME280;21820;51.112;13.762;2024-03-07T00:19:58;100205.59;;;20.11;55.34
35704;BME280;21820;51.112;13.762;2024-03-07T00:22:23;100207.78;;;20.05;56.02
35704;BME280;21820;51.112;13.762;2024-03-07T00:24:52;100201.25;;;19.88;56.01
35704;BME280;21820;51.112;13.762;2024-03-07T00:27:17;100207.66;;;19.95;55.61
35704;BME280;21820;51.112;13.762;2024-03-07T00:29:43;100202.56;;;19.94;55.85
35704;BME280;21820;51.112;13.762;2024-03-07T00:32:08;100193.06;;;19.93;56.11
35704;BME280;21820;51.112;13.762;2024-03-07T00:34:35;100196.84;;;19.89;55.42
35704;BME280;21820;51.112;13.762;2024-03-07T00:37:00;100198.53;;;19.90;56.18
35704;BME280;21820;51.112;13.762;2024-03-07T00:39:26;100194.97;;;19.91;55.90
35704;BME280;21820;51.112;13.762;2024-03-07T00:41:51;100198.53;;;19.90;55.64
35704;BME280;21820;51.112;13.762;2024-03-07T00:44:17;100195.44;;;19.85;55.71
35704;BME280;21820;51.112;13.762;2024-03-07T00:46:42;100190.91;;;19.87;56.13
35704;BME280;21820;51.112;13.762;2024-03-07T00:49:08;100192.59;;;19.88;55.90
35704;BME280;21820;51.112;13.762;2024-03-07T00:51:34;100190.69;;;19.90;56.25
35704;BME280;21820;51.112;13.762;2024-03-07T00:54:00;100182.88;;;19.90;56.17
35704;BME280;21820;51.112;13.762;2024-03-07T00:56:25;100184.28;;;19.94;55.57
35704;BME280;21820;51.112;13.762;2024-03-07T00:58:51;100181.78;;;19.92;55.41
35704;BME280;21820;51.112;13.762;2024-03-07T01:01:17;100175.97;;;19.89;55.59
35704;BME280;21820;51.112;13.762;2024-03-07T01:03:44;100174.56;;;19.85;56.05
35704;BME280;21820;51.112;13.762;2024-03-07T01:06:09;100169.81;;;19.90;56.17
35704;BME280;21820;51.112;13.762;2024-03-07T01:08:36;100177.16;;;19.85;55.85
35704;BME280;21820;51.112;13.762;2024-03-07T01:11:02;100170.88;;;19.87;56.17
35704;BME280;21820;51.112;13.762;2024-03-07T01:13:40;100174.31;;;19.88;55.93
35704;BME280;21820;51.112;13.762;2024-03-07T01:16:06;100170.38;;;19.82;55.69
35704;BME280;21820;51.112;13.762;2024-03-07T01:18:32;100171.81;;;19.86;56.23
35704;BME280;21820;51.112;13.762;2024-03-07T01:20:59;100166.00;;;19.83;56.49
35704;BME280;21820;51.112;13.762;2024-03-07T01:23:24;100175.47;;;19.84;56.24
35704;BME280;21820;51.112;13.762;2024-03-07T01:25:50;100157.69;;;19.78;56.21
35704;BME280;21820;51.112;13.762;2024-03-07T01:28:15;100171.94;;;19.85;56.43
35704;BME280;21820;51.112;13.762;2024-03-07T01:30:42;100159.81;;;19.84;56.20
35704;BME280;21820;51.112;13.762;2024-03-07T01:33:07;100156.50;;;19.82;55.81
35704;BME280;21820;51.112;13.762;2024-03-07T01:35:33;100165.28;;;19.81;55.68
35704;BME280;21820;51.112;13.762;2024-03-07T01:37:58;100162.44;;;19.84;56.43
35704;BME280;21820;51.112;13.762;2024-03-07T01:40:23;100163.38;;;19.83;56.08
35704;BME280;21820;51.112;13.762;2024-03-07T01:42:51;100160.53;;;19.86;56.40
35704;BME280;21820;51.112;13.762;2024-03-07T01:45:17;100162.44;;;19.84;56.17
35704;BME280;21820;51.112;13.762;2024-03-07T01:47:44;100162.66;;;19.81;56.21
35704;BME280;21820;51.112;13.762;2024-03-07T01:50:09;100169.09;;;19.88;56.26
35704;BME280;21820;51.112;13.762;2024-03-07T01:52:36;100174.56;;;19.85;56.13
35704;BME280;21820;51.112;13.762;2024-03-07T01:55:01;100164.13;;;19.85;55.71
35704;BME280;21820;51.112;13.762;2024-03-07T01:57:28;100157.81;;;19.87;55.87
35704;BME280;21820;51.112;13.762;2024-03-07T01:59:54;100159.72;;;19.85;56.29
35704;BME280;21820;51.112;13.762;2024-03-07T02:02:19;100155.31;;;19.86;55.77
35704;BME280;21820;51.112;13.762;2024-03-07T02:04:45;100147.25;;;19.78;55.75
35704;BME280;21820;51.112;13.762;2024-03-07T02:07:10;100154.72;;;19.82;56.34
35704;BME280;21820;51.112;13.762;2024-03-07T02:09:38;100157.22;;;19.84;56.05
35704;BME280;21820;51.112;13.762;2024-03-07T02:12:04;100154.59;;;19.84;56.40
35704;BME280;21820;51.112;13.762;2024-03-07T02:14:29;100149.28;;;19.85;56.13
35704;BME280;21820;51.112;13.762;2024-03-07T02:16:55;100140.28;;;19.89;55.87
35704;BME280;21820;51.112;13.762;2024-03-07T02:19:24;100134.22;;;19.89;55.91
35704;BME280;21820;51.112;13.762;2024-03-07T02:21:50;100135.19;;;19.88;56.39
35704;BME280;21820;51.112;13.762;2024-03-07T02:24:15;100127.34;;;19.88;56.46
35704;BME280;21820;51.112;13.762;2024-03-07T02:26:41;100128.50;;;19.84;56.21
35704;BME280;21820;51.112;13.762;2024-03-07T02:29:06;100137.19;;;19.84;56.03
35704;BME280;21820;51.112;13.762;2024-03-07T02:31:32;100133.72;;;19.84;55.99
35704;BME280;21820;51.112;13.762;2024-03-07T02:34:02;100134.34;;;19.87;55.86
35704;BME280;21820;51.112;13.762;2024-03-07T02:36:27;100136.59;;;19.92;56.03
35704;BME280;21820;51.112;13.762;2024-03-07T02:38:53;100137.56;;;19.91;55.73
35704;BME280;21820;51.112;13.762;2024-03-07T02:41:18;100134.22;;;19.89;56.10
35704;BME280;21820;51.112;13.762;2024-03-07T02:43:43;100134.22;;;19.89;56.35
35704;BME280;21820;51.112;13.762;2024-03-07T02:46:09;100122.09;;;19.77;56.55
35704;BME280;21820;51.112;13.762;2024-03-07T02:48:37;100135.28;;;19.86;55.99
35704;BME280;21820;51.112;13.762;2024-03-07T02:51:03;100127.59;;;19.85;56.11
35704;BME280;21820;51.112;13.762;2024-03-07T02:53:31;100127.34;;;19.88;56.21
35704;BME280;21820;51.112;13.762;2024-03-07T02:55:56;100137.78;;;19.88;56.56
35704;BME280;21820;51.112;13.762;2024-03-07T02:58:21;100127.13;;;19.91;56.55
35704;BME280;21820;51.112;13.762;2024-03-07T03:00:47;100127.59;;;19.85;55.90
35704;BME280;21820;51.112;13.762;2024-03-07T03:03:14;100118.31;;;19.81;56.07
35704;BME280;21820;51.112;13.762;2024-03-07T03:05:39;100130.69;;;19.90;56.49
35704;BME280;21820;51.112;13.762;2024-03-07T03:08:05;100134.47;;;19.86;56.30
35704;BME280;21820;51.112;13.762;2024-03-07T03:10:32;100130.88;;;19.87;56.45
35704;BME280;21820;51.112;13.762;2024-03-07T03:12:58;100121.41;;;19.86;56.22
35704;BME280;21820;51.112;13.762;2024-03-07T03:15:24;100130.69;;;19.90;56.37
35704;BME280;21820;51.112;13.762;2024-03-07T03:17:50;100129.00;;;19.89;55.83
35704;BME280;21820;51.112;13.762;2024-03-07T03:20:15;100123.41;;;19.82;56.21
35704;BME280;21820;51.112;13.762;2024-03-07T03:22:51;100133.97;;;19.92;56.08
35704;BME280;21820;51.112;13.762;2024-03-07T03:25:17;100133.28;;;19.90;55.99
35704;BME280;21820;51.112;13.762;2024-03-07T03:27:43;100134.22;;;19.89;56.41
35704;BME280;21820;51.112;13.762;2024-03-07T03:30:08;100124.69;;;19.77;56.63
35704;BME280;21820;51.112;13.762;2024-03-07T03:32:38;100127.13;;;19.91;56.05
35704;BME280;21820;51.112;13.762;2024-03-07T03:35:04;100123.78;;;19.89;56.27
35704;BME280;21820;51.112;13.762;2024-03-07T03:37:29;100116.44;;;19.83;56.53
35704;BME280;21820;51.112;13.762;2024-03-07T03:39:55;100127.94;;;19.91;55.83
35704;BME280;21820;51.112;13.762;2024-03-07T03:42:20;100127.13;;;19.91;55.93
35704;BME280;21820;51.112;13.762;2024-03-07T03:44:46;100117.63;;;19.90;55.96
35704;BME280;21820;51.112;13.762;2024-03-07T03:47:12;100114.41;;;19.86;56.45
35704;BME280;21820;51.112;13.762;2024-03-07T03:49:37;100120.44;;;19.87;56.54
35704;BME280;21820;51.112;13.762;2024-03-07T03:52:02;100124.63;;;19.89;56.15
35704;BME280;21820;51.112;13.762;2024-03-07T03:54:28;100122.72;;;19.91;56.62
35704;BME280;21820;51.112;13.762;2024-03-07T03:56:54;100125.47;;;19.90;56.18
35704;BME280;21820;51.112;13.762;2024-03-07T03:59:19;100113.81;;;19.83;56.16
35704;BME280;21820;51.112;13.762;2024-03-07T04:01:45;100124.25;;;19.94;56.24
35704;BME280;21820;51.112;13.762;2024-03-07T04:04:10;100122.97;;;19.99;56.34
35704;BME280;21820;51.112;13.762;2024-03-07T04:06:36;100135.44;;;19.96;56.21
35704;BME280;21820;51.112;13.762;2024-03-07T04:09:01;100122.84;;;19.90;55.98
35704;BME280;21820;51.112;13.762;2024-03-07T04:11:26;100117.97;;;19.85;56.49
35704;BME280;21820;51.112;13.762;2024-03-07T04:13:52;100132.56;;;19.88;56.38
35704;BME280;21820;51.112;13.762;2024-03-07T04:16:17;100117.34;;;19.82;56.48
35704;BME280;21820;51.112;13.762;2024-03-07T04:18:42;100128.06;;;19.90;56.07
35704;BME280;21820;51.112;13.762;2024-03-07T04:21:08;100134.81;;;19.92;56.64
35704;BME280;21820;51.112;13.762;2024-03-07T04:23:34;100127.13;;;19.91;56.27
35704;BME280;21820;51.112;13.762;2024-03-07T04:26:00;100121.91;;;19.91;57.07
35704;BME280;21820;51.112;13.762;2024-03-07T04:28:25;100112.06;;;19.83;56.47
35704;BME280;21820;51.112;13.762;2024-03-07T04:30:51;100132.56;;;19.88;56.64
35704;BME280;21820;51.112;13.762;2024-03-07T04:33:18;100126.63;;;19.86;56.00
35704;BME280;21820;51.112;13.762;2024-03-07T04:35:44;100124.63;;;19.89;56.31
35704;BME280;21820;51.112;13.762;2024-03-07T04:38:10;100127.78;;;19.82;56.59
35704;BME280;21820;51.112;13.762;2024-03-07T04:40:41;100131.97;;;19.84;56.95
35704;BME280;21820;51.112;13.762;2024-03-07T04:43:06;100124.28;;;20.05;56.17
35704;BME280;21820;51.112;13.762;2024-03-07T04:45:33;100129.22;;;20.42;54.52
35704;BME280;21820;51.112;13.762;2024-03-07T04:47:59;100130.03;;;20.65;53.92
35704;BME280;21820;51.112;13.762;2024-03-07T04:50:24;100126.53;;;20.98;52.78
35704;BME280;21820;51.112;13.762;2024-03-07T04:52:49;100137.03;;;21.29;51.92
35704;BME280;21820;51.112;13.762;2024-03-07T04:55:15;100136.69;;;21.54;50.79
35704;BME280;21820;51.112;13.762;2024-03-07T04:57:40;100138.75;;;21.71;50.27
35704;BME280;21820;51.112;13.762;2024-03-07T05:00:11;100144.13;;;21.90;49.70
35704;BME280;21820;51.112;13.762;2024-03-07T05:02:40;100141.69;;;21.98;50.13
35704;BME280;21820;51.112;13.762;2024-03-07T05:05:06;100138.31;;;22.08;49.73
35704;BME280;21820;51.112;13.762;2024-03-07T05:07:31;100141.66;;;22.10;49.71
35704;BME280;21820;51.112;13.762;2024-03-07T05:09:57;100146.16;;;22.08;49.78
35704;BME280;21820;51.112;13.762;2024-03-07T05:12:22;100145.91;;;22.11;49.44
35704;BME280;21820;51.112;13.762;2024-03-07T05:14:47;100145.06;;;22.10;49.81
35704;BME280;21820;51.112;13.762;2024-03-07T05:17:13;100144.25;;;22.10;49.94
35704;BME280;21820;51.112;13.762;2024-03-07T05:19:38;100145.78;;;22.12;49.85
35704;BME280;21820;51.112;13.762;2024-03-07T05:22:04;100150.84;;;22.04;50.05
35704;BME280;21820;51.112;13.762;2024-03-07T05:24:32;100159.00;;;21.90;49.93
35704;BME280;21820;51.112;13.762;2024-03-07T05:26:59;100148.22;;;21.83;50.28
35704;BME280;21820;51.112;13.762;2024-03-07T05:29:24;100154.94;;;21.76;50.64
35704;BME280;21820;51.112;13.762;2024-03-07T05:31:49;100160.75;;;21.69;50.60
35704;BME280;21820;51.112;13.762;2024-03-07T05:34:16;100151.88;;;21.60;51.31
35704;BME280;21820;51.112;13.762;2024-03-07T05:36:47;100150.28;;;21.48;51.82
35704;BME280;21820;51.112;13.762;2024-03-07T05:39:13;100142.00;;;21.32;51.58
35704;BME280;21820;51.112;13.762;2024-03-07T05:41:40;100154.50;;;21.29;51.75
35704;BME280;21820;51.112;13.762;2024-03-07T05:44:06;100159.16;;;21.14;52.09
35704;BME280;21820;51.112;13.762;2024-03-07T05:46:41;100156.94;;;21.10;52.55
35704;BME280;21820;51.112;13.762;2024-03-07T05:49:07;100143.78;;;21.00;53.08
35704;BME280;21820;51.112;13.762;2024-03-07T05:51:33;100161.09;;;21.01;52.91
35704;BME280;21820;51.112;13.762;2024-03-07T05:53:58;100168.34;;;20.98;53.03
35704;BME280;21820;51.112;13.762;2024-03-07T05:56:23;100163.84;;;20.89;53.55
35704;BME280;21820;51.112;13.762;2024-03-07T05:58:49;100172.03;;;20.84;53.48
35704;BME280;21820;51.112;13.762;2024-03-07T06:01:16;100154.25;;;20.67;53.93
35704;BME280;21820;51.112;13.762;2024-03-07T06:03:42;100161.38;;;20.65;53.85
35704;BME280;21820;51.112;13.762;2024-03-07T06:06:07;100173.47;;;20.66;54.26
35704;BME280;21820;51.112;13.762;2024-03-07T06:08:38;100162.09;;;20.56;54.28
35704;BME280;21820;51.112;13.762;2024-03-07T06:11:07;100176.69;;;20.58;53.91
35704;BME280;21820;51.112;13.762;2024-03-07T06:13:33;100173.25;;;20.47;54.48
35704;BME280;21820;51.112;13.762;2024-03-07T06:15:58;100183.44;;;20.50;54.25
35704;BME280;21820;51.112;13.762;2024-03-07T06:18:23;100182.03;;;20.46;54.28
35704;BME280;21820;51.112;13.762;2024-03-07T06:20:49;100189.41;;;20.41;54.70
35704;BME280;21820;51.112;13.762;2024-03-07T06:23:14;100197.34;;;20.39;54.72
35704;BME280;21820;51.112;13.762;2024-03-07T06:25:42;100187.34;;;20.33;54.85
35704;BME280;21820;51.112;13.762;2024-03-07T06:28:17;100194.59;;;20.30;54.88
35704;BME280;21820;51.112;13.762;2024-03-07T06:30:44;100194.47;;;20.31;54.84
35704;BME280;21820;51.112;13.762;2024-03-07T06:33:13;100193.66;;;20.31;55.52
35704;BME280;21820;51.112;13.762;2024-03-07T06:35:39;100200.53;;;20.21;55.50
35704;BME280;21820;51.112;13.762;2024-03-07T06:38:07;100196.03;;;20.23;55.73
35704;BME280;21820;51.112;13.762;2024-03-07T06:40:33;100196.22;;;20.20;55.26
35704;BME280;21820;51.112;13.762;2024-03-07T06:42:59;100197.44;;;20.16;55.66
35704;BME280;21820;51.112;13.762;2024-03-07T06:45:25;100192.28;;;20.14;55.66
35704;BME280;21820;51.112;13.762;2024-03-07T06:47:51;100200.25;;;20.13;56.06
35704;BME280;21820;51.112;13.762;2024-03-07T06:50:19;100182.66;;;20.04;55.96
35704;BME280;21820;51.112;13.762;2024-03-07T06:52:48;100201.28;;;20.10;55.38
35704;BME280;21820;51.112;13.762;2024-03-07T06:55:17;100203.06;;;20.10;56.20
35704;BME280;21820;51.112;13.762;2024-03-07T06:57:43;100202.97;;;20.11;56.13
35704;BME280;21820;51.112;13.762;2024-03-07T07:00:12;100192.38;;;20.02;55.77
35704;BME280;21820;51.112;13.762;2024-03-07T07:02:39;100205.91;;;20.07;56.15
35704;BME280;21820;51.112;13.762;2024-03-07T07:05:06;100207.09;;;20.03;55.94
35704;BME280;21820;51.112;13.762;2024-03-07T07:07:39;100213.25;;;20.02;56.35
35704;BME280;21820;51.112;13.762;2024-03-07T07:10:07;100207.22;;;20.01;55.74
35704;BME280;21820;51.112;13.762;2024-03-07T07:12:35;100210.19;;;20.08;55.88
35704;BME280;21820;51.112;13.762;2024-03-07T07:15:01;100209.53;;;20.17;55.85
35704;BME280;21820;51.112;13.762;2024-03-07T07:17:28;100203.25;;;20.19;55.16
35704;BME280;21820;51.112;13.762;2024-03-07T07:19:55;100213.34;;;20.35;55.17
35704;BME280;21820;51.112;13.762;2024-03-07T07:22:21;100206.47;;;20.45;54.42
35704;BME280;21820;51.112;13.762;2024-03-07T07:24:46;100206.72;;;20.53;54.53
35704;BME280;21820;51.112;13.762;2024-03-07T07:27:12;100210.28;;;20.63;54.15
35704;BME280;21820;51.112;13.762;2024-03-07T07:29:37;100211.72;;;20.67;53.78
35704;BME280;21820;51.112;13.762;2024-03-07T07:32:03;100213.63;;;20.65;53.82
35704;BME280;21820;51.112;13.762;2024-03-07T07:34:28;100214.47;;;20.65;53.66
35704;BME280;21820;51.112;13.762;2024-03-07T07:36:55;100211.72;;;20.67;54.25
35704;BME280;21820;51.112;13.762;2024-03-07T07:39:21;100211.13;;;20.63;54.20
35704;BME280;21820;51.112;13.762;2024-03-07T07:41:46;100214.91;;;20.59;54.22
35704;BME280;21820;51.112;13.762;2024-03-07T07:44:12;100209.22;;;20.54;54.32
35704;BME280;21820;51.112;13.762;2024-03-07T07:46:39;100216.00;;;20.57;54.05
35704;BME280;21820;51.112;13.762;2024-03-07T07:49:05;100215.28;;;20.66;54.32
35704;BME280;21820;51.112;13.762;2024-03-07T07:51:31;100210.41;;;20.72;53.73
35704;BME280;21820;51.112;13.762;2024-03-07T07:53:56;100213.84;;;20.73;54.08
35704;BME280;21820;51.112;13.762;2024-03-07T07:56:22;100213.41;;;20.79;54.03
35704;BME280;21820;51.112;13.762;2024-03-07T07:58:48;100207.44;;;20.77;53.85
35704;BME280;21820;51.112;13.762;2024-03-07T08:01:14;100208.38;;;20.76;53.43
35704;BME280;21820;51.112;13.762;2024-03-07T08:03:42;100215.16;;;20.79;53.34
35704;BME280;21820;51.112;13.762;2024-03-07T08:06:09;100215.78;;;20.82;53.33
35704;BME280;21820;51.112;13.762;2024-03-07T08:08:34;100215.03;;;20.80;53.74
35704;BME280;21820;51.112;13.762;2024-03-07T08:10:59;100198.41;;;20.70;53.33
35704;BME280;21820;51.112;13.762;2024-03-07T08:13:25;100212.44;;;20.80;53.54
35704;BME280;21820;51.112;13.762;2024-03-07T08:15:50;100218.16;;;20.74;53.41
35704;BME280;21820;51.112;13.762;2024-03-07T08:18:15;100214.81;;;20.72;53.75
35704;BME280;21820;51.112;13.762;2024-03-07T08:20:42;100202.69;;;20.60;54.06
35704;BME280;21820;51.112;13.762;2024-03-07T08:23:08;100213.88;;;20.62;53.81
35704;BME280;21820;51.112;13.762;2024-03-07T08:25:34;100216.97;;;20.56;53.99
35704;BME280;21820;51.112;13.762;2024-03-07T08:28:00;100218.59;;;20.57;54.68
35704;BME280;21820;51.112;13.762;2024-03-07T08:30:26;100222.28;;;20.54;54.36
35704;BME280;21820;51.112;13.762;2024-03-07T08:32:55;100223.34;;;20.52;54.82
35704;BME280;21820;51.112;13.762;2024-03-07T08:35:22;100216.69;;;20.48;54.12
35704;BME280;21820;51.112;13.762;2024-03-07T08:37:49;100221.31;;;20.44;54.90
35704;BME280;21820;51.112;13.762;2024-03-07T08:40:18;100215.72;;;20.38;54.55
35704;BME280;21820;51.112;13.762;2024-03-07T08:42:48;100215.03;;;20.36;55.06
35704;BME280;21820;51.112;13.762;2024-03-07T08:45:13;100216.19;;;20.32;54.70
35704;BME280;21820;51.112;13.762;2024-03-07T08:47:44;100205.75;;;20.32;54.73
35704;BME280;21820;51.112;13.762;2024-03-07T08:50:11;100218.31;;;20.27;55.45
35704;BME280;21820;51.112;13.762;2024-03-07T08:52:38;100219.28;;;20.26;55.55
35704;BME280;21820;51.112;13.762;2024-03-07T08:55:08;100219.72;;;20.20;55.56
35704;BME280;21820;51.112;13.762;2024-03-07T08:57:37;100228.63;;;20.17;55.23
35704;BME280;21820;51.112;13.762;2024-03-07T09:00:04;100227.91;;;20.15;55.50
35704;BME280;21820;51.112;13.762;2024-03-07T09:02:40;100231.44;;;20.14;55.70
35704;BME280;21820;51.112;13.762;2024-03-07T09:05:05;100228.84;;;20.14;56.03
35704;BME280;21820;51.112;13.762;2024-03-07T09:07:32;100222.19;;;20.10;55.43
35704;BME280;21820;51.112;13.762;2024-03-07T09:09:57;100224.91;;;20.09;56.30
35704;BME280;21820;51.112;13.762;2024-03-07T09:12:22;100228.47;;;20.08;56.10
35704;BME280;21820;51.112;13.762;2024-03-07T09:14:50;100226.47;;;20.11;55.90
35704;BME280;21820;51.112;13.762;2024-03-07T09:17:17;100210.41;;;20.05;55.26
35704;BME280;21820;51.112;13.762;2024-03-07T09:19:42;100218.03;;;20.08;55.15
35704;BME280;21820;51.112;13.762;2024-03-07T09:22:08;100220.75;;;20.06;55.84
35704;BME280;21820;51.112;13.762;2024-03-07T09:24:33;100221.81;;;20.04;55.68
35704;BME280;21820;51.112;13.762;2024-03-07T09:27:00;100212.44;;;20.01;55.87
35704;BME280;21820;51.112;13.762;2024-03-07T09:29:26;100210.88;;;19.99;55.80
35704;BME280;21820;51.112;13.762;2024-03-07T09:31:53;100211.72;;;19.99;55.64
35704;BME280;21820;51.112;13.762;2024-03-07T09:34:19;100211.59;;;20.01;55.76
35704;BME280;21820;51.112;13.762;2024-03-07T09:36:48;100216.81;;;20.01;55.69
35704;BME280;21820;51.112;13.762;2024-03-07T09:39:14;100213.84;;;20.05;56.03
35704;BME280;21820;51.112;13.762;2024-03-07T09:41:40;100210.19;;;20.08;55.46
35704;BME280;21820;51.112;13.762;2024-03-07T09:44:08;100206.63;;;20.09;55.97
35704;BME280;21820;51.112;13.762;2024-03-07T09:46:34;100201.91;;;20.14;55.88
35704;BME280;21820;51.112;13.762;2024-03-07T09:49:01;100206.19;;;20.15;54.94
35704;BME280;21820;51.112;13.762;2024-03-07T09:51:27;100216.06;;;20.22;55.13
35704;BME280;21820;51.112;13.762;2024-03-07T09:53:53;100210.97;;;20.21;55.19
35704;BME280;21820;51.112;13.762;2024-03-07T09:56:23;100203.38;;;20.18;55.54
35704;BME280;21820;51.112;13.762;2024-03-07T09:58:50;100204.78;;;20.22;55.77
35704;BME280;21820;51.112;13.762;2024-03-07T10:01:19;100207.41;;;20.22;54.91
35704;BME280;21820;51.112;13.762;2024-03-07T10:03:47;100203.13;;;20.21;55.41
35704;BME280;21820;51.112;13.762;2024-03-07T10:06:12;100209.09;;;20.23;54.92
35704;BME280;21820;51.112;13.762;2024-03-07T10:08:39;100205.03;;;20.19;55.65
35704;BME280;21820;51.112;13.762;2024-03-07T10:11:05;100197.03;;;20.09;55.22
35704;BME280;21820;51.112;13.762;2024-03-07T10:13:31;100208.34;;;20.21;55.20
35704;BME280;21820;51.112;13.762;2024-03-07T10:15:57;100201.91;;;20.14;55.14
35704;BME280;21820;51.112;13.762;2024-03-07T10:18:25;100208.13;;;20.24;55.48
35704;BME280;21820;51.112;13.762;2024-03-07T10:20:55;100215.84;;;20.25;54.87
35704;BME280;21820;51.112;13.762;2024-03-07T10:23:21;100211.22;;;20.29;55.00
35704;BME280;21820;51.112;13.762;2024-03-07T10:25:47;100197.44;;;20.27;55.03
35704;BME280;21820;51.112;13.762;2024-03-07T10:28:13;100206.84;;;20.29;54.59
35704;BME280;21820;51.112;13.762;2024-03-07T10:30:43;100209.09;;;20.34;54.95
35704;BME280;21820;51.112;13.762;2024-03-07T10:33:10;100203.88;;;20.34;54.63
35704;BME280;21820;51.112;13.762;2024-03-07T10:35:38;100205.28;;;20.38;54.39
35704;BME280;21820;51.112;13.762;2024-03-07T10:38:03;100205.28;;;20.38;54.59
35704;BME280;21820;51.112;13.762;2024-03-07T10:40:32;100209.44;;;20.40;54.81
35704;BME280;21820;51.112;13.762;2024-03-07T10:42:58;100206.25;;;20.37;54.69
35704;BME280;21820;51.112;13.762;2024-03-07T10:45:28;100207.19;;;20.36;55.15
35704;BME280;21820;51.112;13.762;2024-03-07T10:47:55;100200.78;;;20.29;54.40
35704;BME280;21820;51.112;13.762;2024-03-07T10:53:40;100206.13;;;20.27;54.65
35704;BME280;21820;51.112;13.762;2024-03-07T10:56:33;100219.16;;;20.27;54.78
35704;BME280;21820;51.112;13.762;2024-03-07T11:01:49;100213.09;;;20.27;55.39
35704;BME280;21820;51.112;13.762;2024-03-07T11:04:17;100212.19;;;20.28;54.84
35704;BME280;21820;51.112;13.762;2024-03-07T11:06:43;100219.16;;;20.27;54.70
35704;BME280;21820;51.112;13.762;2024-03-07T11:09:10;100214.78;;;20.28;54.84
35704;BME280;21820;51.112;13.762;2024-03-07T11:11:39;100205.03;;;20.30;55.11
35704;BME280;21820;51.112;13.762;2024-03-07T11:14:10;100223.91;;;20.33;55.13
35704;BME280;21820;51.112;13.762;2024-03-07T11:16:38;100209.09;;;20.34;54.56
35704;BME280;21820;51.112;13.762;2024-03-07T11:21:50;100211.69;;;20.34;54.68
35704;BME280;21820;51.112;13.762;2024-03-07T11:27:02;100206.47;;;20.34;54.89
35704;BME280;21820;51.112;13.762;2024-03-07T11:29:47;100201.50;;;20.31;54.63
35704;BME280;21820;51.112;13.762;2024-03-07T11:32:13;100193.41;;;20.23;55.48
35704;BME280;21820;51.112;13.762;2024-03-07T11:34:40;100201.50;;;20.31;54.76
35704;BME280;21820;51.112;13.762;2024-03-07T11:37:19;100205.16;;;20.28;55.24
35704;BME280;21820;51.112;13.762;2024-03-07T11:39:48;100195.78;;;20.26;55.29
35704;BME280;21820;51.112;13.762;2024-03-07T11:42:28;100200.41;;;20.22;55.61
35704;BME280;21820;51.112;13.762;2024-03-07T11:44:56;100188.28;;;20.21;55.34
35704;BME280;21820;51.112;13.762;2024-03-07T11:47:26;100195.06;;;20.24;54.90
35704;BME280;21820;51.112;13.762;2024-03-07T11:49:55;100177.56;;;20.13;55.30
35704;BME280;21820;51.112;13.762;2024-03-07T11:52:23;100193.41;;;20.23;55.07
35704;BME280;21820;51.112;13.762;2024-03-07T11:54:48;100187.47;;;20.21;54.91
35704;BME280;21820;51.112;13.762;2024-03-07T11:57:17;100189.72;;;20.25;55.24
35704;BME280;21820;51.112;13.762;2024-03-07T11:59:52;100190.31;;;20.29;55.33
35704;BME280;21820;51.112;13.762;2024-03-07T12:02:18;100185.94;;;20.29;54.83
35704;BME280;21820;51.112;13.762;2024-03-07T12:04:49;100173.22;;;20.25;54.93
35704;BME280;21820;51.112;13.762;2024-03-07T12:07:15;100179.88;;;20.29;55.28
35704;BME280;21820;51.112;13.762;2024-03-07T12:09:43;100186.88;;;20.28;54.91
35704;BME280;21820;51.112;13.762;2024-03-07T12:12:11;100183.66;;;20.25;54.93
35704;BME280;21820;51.112;13.762;2024-03-07T12:14:37;100169.81;;;20.24;55.39
35704;BME280;21820;51.112;13.762;2024-03-07T12:17:04;100171.31;;;20.27;54.96
35704;BME280;21820;51.112;13.762;2024-03-07T12:19:32;100170.84;;;20.22;55.67
35704;BME280;21820;51.112;13.762;2024-03-07T12:22:00;100164.78;;;20.21;55.19
35704;BME280;21820;51.112;13.762;2024-03-07T12:24:26;100156.59;;;20.15;55.34
35704;BME280;21820;51.112;13.762;2024-03-07T12:26:51;100153.25;;;20.13;55.08
35704;BME280;21820;51.112;13.762;2024-03-07T12:29:16;100164.41;;;20.15;55.59
35704;BME280;21820;51.112;13.762;2024-03-07T12:31:42;100159.00;;;20.18;55.48
35704;BME280;21820;51.112;13.762;2024-03-07T12:34:08;100157.31;;;20.17;55.58
35704;BME280;21820;51.112;13.762;2024-03-07T12:36:34;100157.44;;;20.15;55.54
35704;BME280;21820;51.112;13.762;2024-03-07T12:39:21;100153.84;;;20.16;55.39
35704;BME280;21820;51.112;13.762;2024-03-07T12:41:50;100163.25;;;20.19;55.14
35704;BME280;21820;51.112;13.762;2024-03-07T12:44:19;100151.16;;;20.18;55.25
35704;BME280;21820;51.112;13.762;2024-03-07T12:46:48;100148.44;;;20.19;55.39
35704;BME280;21820;51.112;13.762;2024-03-07T12:49:14;100148.56;;;20.18;55.41